This is the latest recevied weather packets stored in our database for station/object OK2ZI. If no packets are shown the sender has not sent any weather packets the latest 10 day(s).
| Time | Temp. | Humidity | Pressure | Rain* | Wind** | Luminosity | Snow |
|---|---|---|---|---|---|---|---|
| 1777502166 | -3.33° C | 72% | 1026 hPa | 0 mm | - | - | - |
| 1777499887 | -3.89° C | 76% | 1025 hPa | 0 mm | - | - | - |
| 1777498567 | -3.33° C | 74% | 1025 hPa | 0 mm | - | - | - |
| 1777498327 | -2.78° C | 70% | 1025 hPa | 0 mm | - | - | - |
| 1777497967 | -1.67° C | 63% | 1025 hPa | 0 mm | - | - | - |
| 1777497611 | -1.67° C | 62% | 1025 hPa | 0 mm | - | - | - |
| 1777497246 | -1.67° C | 64% | 1025 hPa | 0 mm | - | - | - |
| 1777493166 | 2.78° C | 47% | 1024 hPa | 0 mm | - | - | - |
| 1777492817 | 2.78° C | 47% | 1024 hPa | 0 mm | - | - | - |
| 1777492687 | 2.78° C | 46% | 1024 hPa | 0 mm | - | - | - |
| 1777492567 | 2.78° C | 46% | 1024 hPa | 0 mm | - | - | - |
| 1777492087 | 2.78° C | 46% | 1024 hPa | 0 mm | - | - | - |
| 1777490766 | 4.44° C | 40% | 1024 hPa | 0 mm | - | - | - |
| 1777488726 | 5° C | 36% | 1023 hPa | 0 mm | - | - | - |
| 1777488125 | 5.56° C | 35% | 1023 hPa | 0 mm | - | - | - |
| 1777488010 | 5.56° C | 35% | 1023 hPa | 0 mm | - | - | - |
| 1777486447 | 6.11° C | 32% | 1023 hPa | 0 mm | - | - | - |
| 1777485726 | 6.67° C | 32% | 1023 hPa | 0 mm | - | - | - |
| 1777485621 | 6.67° C | 32% | 1023 hPa | 0 mm | - | - | - |
| 1777483325 | 7.78° C | 31% | 1022 hPa | 0 mm | - | - | - |
| 1777482965 | 8.33° C | 30% | 1022 hPa | 0 mm | - | - | - |
| 1777481287 | 8.89° C | 31% | 1021 hPa | 0 mm | - | - | - |
| 1777481166 | 8.89° C | 31% | 1021 hPa | 0 mm | - | - | - |
| 1777480567 | 9.44° C | 31% | 1021 hPa | 0 mm | - | - | - |
| 1777480446 | 9.44° C | 31% | 1021 hPa | 0 mm | - | - | - |
* Rain latest hour (hover to see other rain measurements)
** Current wind speed in m/s (hover to see current wind gust speed)